Princeton, Oregon
Current Conditions -  °F | °C
As of 12:53 AM on Tuesday 21 Oct 2014 (Local Time) from KBNO Reporting Station
Few Clouds Few Clouds  
Wind Chill: 40°   Ceiling: Unl
Heat Index: 40°   Visibility: 10mi
Dew Point: 37°   Wind: 3mph
Humidity: 89%   Direction: 60°ENE
Pressure: 29.91"   Gusts: NA
Location:  43.25°N, 118.58°W
Report Text: KBNO 210753Z AUTO 06003KT 10SM FEW120 04/03 A2991 RMK AO2 SLP112 T00440028 402221039
Loading
Personal Weather Stations






























Interactive Weather Map New forecast layout! Learn more

10-Day Weather Forecast

Advertisements
Track Severe Weather on mobile